sensor_id;sensor_type;location;lat;lon;timestamp;P1;durP1;ratioP1;P2;durP2;ratioP2
52686;SDS011;38584;49.426;8.396;2023-02-28T00:00:19;8.63;;;2.72;;
52686;SDS011;38584;49.426;8.396;2023-02-28T00:02:46;9.05;;;2.90;;
52686;SDS011;38584;49.426;8.396;2023-02-28T00:05:16;7.35;;;2.70;;
52686;SDS011;38584;49.426;8.396;2023-02-28T00:07:46;8.55;;;2.70;;
52686;SDS011;38584;49.426;8.396;2023-02-28T00:10:13;9.52;;;3.00;;
52686;SDS011;38584;49.426;8.396;2023-02-28T00:12:45;7.07;;;2.45;;
52686;SDS011;38584;49.426;8.396;2023-02-28T00:15:11;9.25;;;2.67;;
52686;SDS011;38584;49.426;8.396;2023-02-28T00:17:36;7.65;;;2.53;;
52686;SDS011;38584;49.426;8.396;2023-02-28T00:20:02;8.80;;;2.60;;
52686;SDS011;38584;49.426;8.396;2023-02-28T00:22:40;8.45;;;2.80;;
52686;SDS011;38584;49.426;8.396;2023-02-28T00:25:10;8.68;;;2.60;;
52686;SDS011;38584;49.426;8.396;2023-02-28T00:27:39;8.85;;;2.55;;
52686;SDS011;38584;49.426;8.396;2023-02-28T00:30:11;8.20;;;2.63;;
52686;SDS011;38584;49.426;8.396;2023-02-28T00:32:37;8.50;;;2.95;;
52686;SDS011;38584;49.426;8.396;2023-02-28T00:35:03;8.68;;;2.78;;
52686;SDS011;38584;49.426;8.396;2023-02-28T00:37:29;12.07;;;2.80;;
52686;SDS011;38584;49.426;8.396;2023-02-28T00:39:54;11.18;;;2.97;;
52686;SDS011;38584;49.426;8.396;2023-02-28T00:42:19;9.40;;;2.72;;
52686;SDS011;38584;49.426;8.396;2023-02-28T00:44:45;10.65;;;3.20;;
52686;SDS011;38584;49.426;8.396;2023-02-28T00:47:10;10.85;;;3.28;;
52686;SDS011;38584;49.426;8.396;2023-02-28T00:49:35;11.48;;;2.83;;
52686;SDS011;38584;49.426;8.396;2023-02-28T00:52:01;9.95;;;3.08;;
52686;SDS011;38584;49.426;8.396;2023-02-28T00:54:26;8.93;;;3.03;;
52686;SDS011;38584;49.426;8.396;2023-02-28T00:56:54;8.50;;;3.00;;
52686;SDS011;38584;49.426;8.396;2023-02-28T00:59:19;9.95;;;3.03;;
52686;SDS011;38584;49.426;8.396;2023-02-28T01:01:45;11.27;;;3.47;;
52686;SDS011;38584;49.426;8.396;2023-02-28T01:04:11;8.43;;;3.10;;
52686;SDS011;38584;49.426;8.396;2023-02-28T01:06:40;8.45;;;3.05;;
52686;SDS011;38584;49.426;8.396;2023-02-28T01:09:06;9.00;;;3.03;;
52686;SDS011;38584;49.426;8.396;2023-02-28T01:11:38;8.70;;;3.13;;
52686;SDS011;38584;49.426;8.396;2023-02-28T01:14:05;8.15;;;2.78;;
52686;SDS011;38584;49.426;8.396;2023-02-28T01:16:30;9.30;;;2.85;;
52686;SDS011;38584;49.426;8.396;2023-02-28T01:18:56;9.02;;;2.88;;
52686;SDS011;38584;49.426;8.396;2023-02-28T01:21:21;9.23;;;3.13;;
52686;SDS011;38584;49.426;8.396;2023-02-28T01:23:47;8.40;;;2.83;;
52686;SDS011;38584;49.426;8.396;2023-02-28T01:26:18;14.70;;;3.25;;
52686;SDS011;38584;49.426;8.396;2023-02-28T01:28:45;9.10;;;3.20;;
52686;SDS011;38584;49.426;8.396;2023-02-28T01:31:11;10.30;;;3.53;;
52686;SDS011;38584;49.426;8.396;2023-02-28T01:33:36;9.27;;;3.00;;
52686;SDS011;38584;49.426;8.396;2023-02-28T01:36:03;9.18;;;3.13;;
52686;SDS011;38584;49.426;8.396;2023-02-28T01:38:31;9.45;;;3.35;;
52686;SDS011;38584;49.426;8.396;2023-02-28T01:41:00;9.30;;;3.20;;
52686;SDS011;38584;49.426;8.396;2023-02-28T01:43:39;10.73;;;3.78;;
52686;SDS011;38584;49.426;8.396;2023-02-28T01:46:21;11.20;;;3.40;;
52686;SDS011;38584;49.426;8.396;2023-02-28T01:48:48;13.98;;;3.65;;
52686;SDS011;38584;49.426;8.396;2023-02-28T01:51:21;10.52;;;3.53;;
52686;SDS011;38584;49.426;8.396;2023-02-28T01:53:50;9.55;;;3.50;;
52686;SDS011;38584;49.426;8.396;2023-02-28T01:56:18;10.07;;;3.63;;
52686;SDS011;38584;49.426;8.396;2023-02-28T01:58:49;10.55;;;3.72;;
52686;SDS011;38584;49.426;8.396;2023-02-28T02:01:16;11.60;;;4.00;;
52686;SDS011;38584;49.426;8.396;2023-02-28T02:03:56;10.70;;;3.85;;
52686;SDS011;38584;49.426;8.396;2023-02-28T02:06:28;11.95;;;4.20;;
52686;SDS011;38584;49.426;8.396;2023-02-28T02:08:55;11.27;;;3.95;;
52686;SDS011;38584;49.426;8.396;2023-02-28T02:11:21;12.50;;;3.95;;
52686;SDS011;38584;49.426;8.396;2023-02-28T02:25:34;12.13;;;3.90;;
52686;SDS011;38584;49.426;8.396;2023-02-28T02:36:52;11.95;;;4.25;;
52686;SDS011;38584;49.426;8.396;2023-02-28T02:39:36;10.15;;;3.92;;
52686;SDS011;38584;49.426;8.396;2023-02-28T02:42:11;12.77;;;4.40;;
52686;SDS011;38584;49.426;8.396;2023-02-28T02:45:00;11.02;;;4.20;;
52686;SDS011;38584;49.426;8.396;2023-02-28T02:47:31;9.93;;;4.05;;
52686;SDS011;38584;49.426;8.396;2023-02-28T02:50:01;10.57;;;3.88;;
52686;SDS011;38584;49.426;8.396;2023-02-28T02:52:32;10.55;;;4.22;;
52686;SDS011;38584;49.426;8.396;2023-02-28T02:55:02;11.27;;;4.20;;
52686;SDS011;38584;49.426;8.396;2023-02-28T02:57:33;10.35;;;4.47;;
52686;SDS011;38584;49.426;8.396;2023-02-28T03:00:02;10.88;;;4.35;;
52686;SDS011;38584;49.426;8.396;2023-02-28T03:02:29;14.25;;;4.70;;
52686;SDS011;38584;49.426;8.396;2023-02-28T03:04:59;11.88;;;4.45;;
52686;SDS011;38584;49.426;8.396;2023-02-28T03:07:26;11.73;;;4.15;;
52686;SDS011;38584;49.426;8.396;2023-02-28T03:09:52;12.80;;;4.63;;
52686;SDS011;38584;49.426;8.396;2023-02-28T03:12:23;10.02;;;4.10;;
52686;SDS011;38584;49.426;8.396;2023-02-28T03:20:27;13.85;;;5.20;;
52686;SDS011;38584;49.426;8.396;2023-02-28T03:23:21;13.85;;;5.18;;
52686;SDS011;38584;49.426;8.396;2023-02-28T03:25:54;11.27;;;4.65;;
52686;SDS011;38584;49.426;8.396;2023-02-28T03:28:25;12.82;;;5.03;;
52686;SDS011;38584;49.426;8.396;2023-02-28T03:30:54;14.90;;;4.90;;
52686;SDS011;38584;49.426;8.396;2023-02-28T03:33:30;11.85;;;4.75;;
52686;SDS011;38584;49.426;8.396;2023-02-28T03:36:24;16.45;;;5.35;;
52686;SDS011;38584;49.426;8.396;2023-02-28T03:38:54;12.60;;;4.70;;
52686;SDS011;38584;49.426;8.396;2023-02-28T03:41:28;10.75;;;4.43;;
52686;SDS011;38584;49.426;8.396;2023-02-28T03:44:06;12.77;;;5.60;;
52686;SDS011;38584;49.426;8.396;2023-02-28T03:47:14;13.77;;;5.10;;
52686;SDS011;38584;49.426;8.396;2023-02-28T03:49:40;13.75;;;5.45;;
52686;SDS011;38584;49.426;8.396;2023-02-28T03:52:09;14.65;;;5.45;;
52686;SDS011;38584;49.426;8.396;2023-02-28T03:54:40;14.35;;;6.15;;
52686;SDS011;38584;49.426;8.396;2023-02-28T03:57:12;13.23;;;5.30;;
52686;SDS011;38584;49.426;8.396;2023-02-28T03:59:44;13.05;;;5.60;;
52686;SDS011;38584;49.426;8.396;2023-02-28T04:02:15;13.02;;;5.43;;
52686;SDS011;38584;49.426;8.396;2023-02-28T04:04:43;15.73;;;5.93;;
52686;SDS011;38584;49.426;8.396;2023-02-28T04:07:10;13.23;;;5.88;;
52686;SDS011;38584;49.426;8.396;2023-02-28T04:09:36;14.02;;;5.75;;
52686;SDS011;38584;49.426;8.396;2023-02-28T04:12:04;11.82;;;5.47;;
52686;SDS011;38584;49.426;8.396;2023-02-28T04:14:30;13.85;;;5.75;;
52686;SDS011;38584;49.426;8.396;2023-02-28T04:16:55;14.82;;;6.20;;
52686;SDS011;38584;49.426;8.396;2023-02-28T04:19:23;13.32;;;6.05;;
52686;SDS011;38584;49.426;8.396;2023-02-28T04:21:50;16.17;;;6.72;;
52686;SDS011;38584;49.426;8.396;2023-02-28T04:24:26;15.40;;;5.97;;
52686;SDS011;38584;49.426;8.396;2023-02-28T04:26:52;14.90;;;6.15;;
52686;SDS011;38584;49.426;8.396;2023-02-28T04:31:51;17.73;;;6.03;;
52686;SDS011;38584;49.426;8.396;2023-02-28T04:34:22;14.48;;;6.28;;
52686;SDS011;38584;49.426;8.396;2023-02-28T04:36:48;17.60;;;6.20;;
52686;SDS011;38584;49.426;8.396;2023-02-28T04:39:21;13.57;;;6.38;;
52686;SDS011;38584;49.426;8.396;2023-02-28T04:41:50;19.52;;;7.15;;
52686;SDS011;38584;49.426;8.396;2023-02-28T04:44:16;15.05;;;6.60;;
52686;SDS011;38584;49.426;8.396;2023-02-28T04:46:41;14.25;;;6.20;;
52686;SDS011;38584;49.426;8.396;2023-02-28T04:49:08;15.60;;;6.63;;
52686;SDS011;38584;49.426;8.396;2023-02-28T04:51:36;14.35;;;6.50;;
52686;SDS011;38584;49.426;8.396;2023-02-28T04:54:02;17.60;;;6.90;;
52686;SDS011;38584;49.426;8.396;2023-02-28T04:56:27;15.02;;;6.95;;
52686;SDS011;38584;49.426;8.396;2023-02-28T04:58:52;15.02;;;6.65;;
52686;SDS011;38584;49.426;8.396;2023-02-28T05:03:48;15.82;;;6.70;;
52686;SDS011;38584;49.426;8.396;2023-02-28T05:06:17;16.23;;;7.00;;
52686;SDS011;38584;49.426;8.396;2023-02-28T05:08:43;17.40;;;6.63;;
52686;SDS011;38584;49.426;8.396;2023-02-28T05:11:19;18.15;;;6.47;;
52686;SDS011;38584;49.426;8.396;2023-02-28T05:13:46;17.23;;;6.70;;
52686;SDS011;38584;49.426;8.396;2023-02-28T05:16:11;15.55;;;5.70;;
52686;SDS011;38584;49.426;8.396;2023-02-28T05:18:37;12.95;;;5.50;;
52686;SDS011;38584;49.426;8.396;2023-02-28T05:21:02;15.63;;;5.53;;
52686;SDS011;38584;49.426;8.396;2023-02-28T05:23:31;15.30;;;5.40;;
52686;SDS011;38584;49.426;8.396;2023-02-28T05:25:56;16.30;;;5.50;;
52686;SDS011;38584;49.426;8.396;2023-02-28T05:28:22;17.13;;;5.88;;
52686;SDS011;38584;49.426;8.396;2023-02-28T05:30:47;15.10;;;5.25;;
52686;SDS011;38584;49.426;8.396;2023-02-28T05:33:16;14.50;;;5.35;;
52686;SDS011;38584;49.426;8.396;2023-02-28T05:35:41;16.95;;;5.03;;
52686;SDS011;38584;49.426;8.396;2023-02-28T05:38:07;14.75;;;5.40;;
52686;SDS011;38584;49.426;8.396;2023-02-28T05:40:33;11.60;;;4.85;;
52686;SDS011;38584;49.426;8.396;2023-02-28T05:43:02;16.10;;;5.65;;
52686;SDS011;38584;49.426;8.396;2023-02-28T05:45:27;14.20;;;5.10;;
52686;SDS011;38584;49.426;8.396;2023-02-28T05:47:53;17.30;;;5.32;;
52686;SDS011;38584;49.426;8.396;2023-02-28T05:50:19;11.57;;;4.72;;
52686;SDS011;38584;49.426;8.396;2023-02-28T05:52:48;19.50;;;5.43;;
52686;SDS011;38584;49.426;8.396;2023-02-28T05:55:17;14.73;;;5.38;;
52686;SDS011;38584;49.426;8.396;2023-02-28T05:57:42;14.00;;;5.22;;
52686;SDS011;38584;49.426;8.396;2023-02-28T06:00:08;13.15;;;5.03;;
52686;SDS011;38584;49.426;8.396;2023-02-28T06:02:34;12.10;;;5.03;;
52686;SDS011;38584;49.426;8.396;2023-02-28T06:04:59;13.60;;;5.63;;
52686;SDS011;38584;49.426;8.396;2023-02-28T06:07:28;13.90;;;5.85;;
52686;SDS011;38584;49.426;8.396;2023-02-28T06:09:53;11.90;;;5.45;;
52686;SDS011;38584;49.426;8.396;2023-02-28T06:12:18;12.00;;;4.93;;
52686;SDS011;38584;49.426;8.396;2023-02-28T06:14:43;13.63;;;5.18;;
52686;SDS011;38584;49.426;8.396;2023-02-28T06:17:09;13.60;;;5.10;;
52686;SDS011;38584;49.426;8.396;2023-02-28T06:19:36;11.93;;;4.70;;
52686;SDS011;38584;49.426;8.396;2023-02-28T06:22:03;12.93;;;5.20;;
52686;SDS011;38584;49.426;8.396;2023-02-28T06:24:29;11.52;;;4.93;;
52686;SDS011;38584;49.426;8.396;2023-02-28T06:26:55;14.43;;;5.07;;
52686;SDS011;38584;49.426;8.396;2023-02-28T06:29:20;12.77;;;5.28;;
52686;SDS011;38584;49.426;8.396;2023-02-28T06:31:46;11.25;;;5.10;;
52686;SDS011;38584;49.426;8.396;2023-02-28T06:34:11;13.77;;;4.97;;
52686;SDS011;38584;49.426;8.396;2023-02-28T06:36:37;17.00;;;5.00;;
52686;SDS011;38584;49.426;8.396;2023-02-28T06:39:03;13.13;;;5.00;;
52686;SDS011;38584;49.426;8.396;2023-02-28T06:41:29;14.48;;;5.68;;
52686;SDS011;38584;49.426;8.396;2023-02-28T06:43:54;11.57;;;4.95;;
52686;SDS011;38584;49.426;8.396;2023-02-28T06:46:20;12.25;;;5.10;;
52686;SDS011;38584;49.426;8.396;2023-02-28T06:48:48;14.57;;;5.50;;
52686;SDS011;38584;49.426;8.396;2023-02-28T06:51:15;13.10;;;5.25;;
52686;SDS011;38584;49.426;8.396;2023-02-28T06:53:45;14.10;;;4.90;;
52686;SDS011;38584;49.426;8.396;2023-02-28T06:56:14;12.10;;;5.32;;
52686;SDS011;38584;49.426;8.396;2023-02-28T06:58:47;15.85;;;5.28;;
52686;SDS011;38584;49.426;8.396;2023-02-28T07:01:13;14.07;;;5.10;;
52686;SDS011;38584;49.426;8.396;2023-02-28T07:03:38;15.65;;;5.20;;
52686;SDS011;38584;49.426;8.396;2023-02-28T07:06:04;14.40;;;5.43;;
52686;SDS011;38584;49.426;8.396;2023-02-28T07:08:30;15.18;;;6.00;;
52686;SDS011;38584;49.426;8.396;2023-02-28T07:10:56;13.88;;;5.97;;
52686;SDS011;38584;49.426;8.396;2023-02-28T07:13:25;15.23;;;5.90;;
52686;SDS011;38584;49.426;8.396;2023-02-28T07:15:58;16.60;;;5.57;;
52686;SDS011;38584;49.426;8.396;2023-02-28T07:18:31;14.68;;;5.22;;
52686;SDS011;38584;49.426;8.396;2023-02-28T07:20:57;13.88;;;5.70;;
52686;SDS011;38584;49.426;8.396;2023-02-28T07:23:23;13.73;;;5.47;;
52686;SDS011;38584;49.426;8.396;2023-02-28T07:25:49;14.93;;;5.93;;
52686;SDS011;38584;49.426;8.396;2023-02-28T07:28:15;16.30;;;5.57;;
52686;SDS011;38584;49.426;8.396;2023-02-28T07:30:43;15.75;;;5.97;;
52686;SDS011;38584;49.426;8.396;2023-02-28T07:33:09;14.50;;;6.22;;
52686;SDS011;38584;49.426;8.396;2023-02-28T07:35:35;18.55;;;6.45;;
52686;SDS011;38584;49.426;8.396;2023-02-28T07:38:00;16.17;;;6.00;;
52686;SDS011;38584;49.426;8.396;2023-02-28T07:40:29;16.27;;;5.85;;
52686;SDS011;38584;49.426;8.396;2023-02-28T07:42:55;15.35;;;5.80;;
52686;SDS011;38584;49.426;8.396;2023-02-28T07:45:23;14.10;;;5.88;;
52686;SDS011;38584;49.426;8.396;2023-02-28T07:47:48;14.25;;;5.75;;
52686;SDS011;38584;49.426;8.396;2023-02-28T07:50:17;14.20;;;6.10;;
52686;SDS011;38584;49.426;8.396;2023-02-28T07:52:42;13.30;;;5.55;;
52686;SDS011;38584;49.426;8.396;2023-02-28T07:55:08;14.32;;;6.18;;
52686;SDS011;38584;49.426;8.396;2023-02-28T07:57:43;15.15;;;5.80;;
52686;SDS011;38584;49.426;8.396;2023-02-28T08:00:10;13.30;;;5.85;;
52686;SDS011;38584;49.426;8.396;2023-02-28T08:02:39;14.77;;;5.90;;
52686;SDS011;38584;49.426;8.396;2023-02-28T08:05:05;15.55;;;6.10;;
52686;SDS011;38584;49.426;8.396;2023-02-28T08:07:31;12.45;;;5.60;;
52686;SDS011;38584;49.426;8.396;2023-02-28T08:09:58;15.45;;;6.43;;
52686;SDS011;38584;49.426;8.396;2023-02-28T08:12:23;16.92;;;5.88;;
52686;SDS011;38584;49.426;8.396;2023-02-28T08:14:48;13.73;;;6.30;;
52686;SDS011;38584;49.426;8.396;2023-02-28T08:17:14;13.10;;;5.97;;
52686;SDS011;38584;49.426;8.396;2023-02-28T08:19:39;15.85;;;5.75;;
52686;SDS011;38584;49.426;8.396;2023-02-28T08:22:04;13.25;;;5.72;;
52686;SDS011;38584;49.426;8.396;2023-02-28T08:24:30;14.82;;;6.32;;
52686;SDS011;38584;49.426;8.396;2023-02-28T08:26:55;14.98;;;6.10;;
52686;SDS011;38584;49.426;8.396;2023-02-28T08:29:21;12.38;;;5.60;;
52686;SDS011;38584;49.426;8.396;2023-02-28T08:31:46;15.70;;;6.28;;
52686;SDS011;38584;49.426;8.396;2023-02-28T08:34:12;14.93;;;6.13;;
52686;SDS011;38584;49.426;8.396;2023-02-28T08:36:42;16.40;;;6.78;;
52686;SDS011;38584;49.426;8.396;2023-02-28T08:39:09;15.05;;;7.07;;
52686;SDS011;38584;49.426;8.396;2023-02-28T08:41:35;16.00;;;6.72;;
52686;SDS011;38584;49.426;8.396;2023-02-28T08:44:01;15.80;;;6.88;;
52686;SDS011;38584;49.426;8.396;2023-02-28T08:46:26;15.07;;;6.50;;
52686;SDS011;38584;49.426;8.396;2023-02-28T08:48:52;14.77;;;6.65;;
52686;SDS011;38584;49.426;8.396;2023-02-28T08:51:19;14.45;;;7.10;;
52686;SDS011;38584;49.426;8.396;2023-02-28T08:54:03;13.80;;;6.32;;
52686;SDS011;38584;49.426;8.396;2023-02-28T08:56:28;16.00;;;6.70;;
52686;SDS011;38584;49.426;8.396;2023-02-28T08:58:57;16.98;;;7.13;;
52686;SDS011;38584;49.426;8.396;2023-02-28T09:01:23;14.65;;;6.38;;
52686;SDS011;38584;49.426;8.396;2023-02-28T09:03:55;14.38;;;6.70;;
52686;SDS011;38584;49.426;8.396;2023-02-28T09:06:22;14.45;;;6.47;;
52686;SDS011;38584;49.426;8.396;2023-02-28T09:08:51;15.52;;;6.82;;
52686;SDS011;38584;49.426;8.396;2023-02-28T09:11:18;14.65;;;6.47;;
52686;SDS011;38584;49.426;8.396;2023-02-28T09:13:47;14.60;;;6.60;;
52686;SDS011;38584;49.426;8.396;2023-02-28T09:16:13;15.82;;;6.38;;
52686;SDS011;38584;49.426;8.396;2023-02-28T09:18:40;16.65;;;6.43;;
52686;SDS011;38584;49.426;8.396;2023-02-28T09:21:10;15.63;;;6.93;;
52686;SDS011;38584;49.426;8.396;2023-02-28T09:23:39;13.20;;;6.22;;
52686;SDS011;38584;49.426;8.396;2023-02-28T09:26:11;16.65;;;6.15;;
52686;SDS011;38584;49.426;8.396;2023-02-28T09:28:39;16.35;;;6.55;;
52686;SDS011;38584;49.426;8.396;2023-02-28T09:31:10;13.18;;;6.38;;
52686;SDS011;38584;49.426;8.396;2023-02-28T09:33:40;14.07;;;6.82;;
52686;SDS011;38584;49.426;8.396;2023-02-28T09:36:06;15.73;;;6.57;;
52686;SDS011;38584;49.426;8.396;2023-02-28T09:38:34;15.98;;;7.30;;
52686;SDS011;38584;49.426;8.396;2023-02-28T09:41:08;15.25;;;6.43;;
52686;SDS011;38584;49.426;8.396;2023-02-28T09:43:38;17.35;;;6.78;;
52686;SDS011;38584;49.426;8.396;2023-02-28T09:48:53;13.40;;;6.57;;
52686;SDS011;38584;49.426;8.396;2023-02-28T09:51:33;15.60;;;6.85;;
52686;SDS011;38584;49.426;8.396;2023-02-28T09:54:09;13.25;;;6.50;;
52686;SDS011;38584;49.426;8.396;2023-02-28T10:05:57;15.73;;;6.40;;
52686;SDS011;38584;49.426;8.396;2023-02-28T10:08:43;14.85;;;6.43;;
52686;SDS011;38584;49.426;8.396;2023-02-28T10:11:16;14.43;;;6.80;;
52686;SDS011;38584;49.426;8.396;2023-02-28T10:19:14;14.27;;;6.45;;
52686;SDS011;38584;49.426;8.396;2023-02-28T10:21:43;13.55;;;6.40;;
52686;SDS011;38584;49.426;8.396;2023-02-28T10:26:45;17.90;;;7.40;;
52686;SDS011;38584;49.426;8.396;2023-02-28T10:29:10;14.60;;;6.75;;
52686;SDS011;38584;49.426;8.396;2023-02-28T10:31:36;13.88;;;6.80;;
52686;SDS011;38584;49.426;8.396;2023-02-28T10:34:01;13.65;;;6.05;;
52686;SDS011;38584;49.426;8.396;2023-02-28T10:36:28;16.77;;;6.82;;
52686;SDS011;38584;49.426;8.396;2023-02-28T10:38:53;14.95;;;6.20;;
52686;SDS011;38584;49.426;8.396;2023-02-28T10:43:53;13.80;;;6.50;;
52686;SDS011;38584;49.426;8.396;2023-02-28T10:49:03;16.33;;;6.77;;
52686;SDS011;38584;49.426;8.396;2023-02-28T10:51:38;14.40;;;6.68;;
52686;SDS011;38584;49.426;8.396;2023-02-28T10:54:05;15.90;;;6.43;;
52686;SDS011;38584;49.426;8.396;2023-02-28T10:56:30;15.60;;;7.18;;
52686;SDS011;38584;49.426;8.396;2023-02-28T11:01:25;13.52;;;6.25;;
52686;SDS011;38584;49.426;8.396;2023-02-28T11:09:52;14.88;;;7.15;;
52686;SDS011;38584;49.426;8.396;2023-02-28T11:12:20;14.18;;;6.65;;
52686;SDS011;38584;49.426;8.396;2023-02-28T11:14:47;13.25;;;6.05;;
52686;SDS011;38584;49.426;8.396;2023-02-28T11:17:19;14.32;;;6.72;;
52686;SDS011;38584;49.426;8.396;2023-02-28T11:19:47;15.13;;;6.72;;
52686;SDS011;38584;49.426;8.396;2023-02-28T11:22:18;15.85;;;6.32;;
52686;SDS011;38584;49.426;8.396;2023-02-28T11:24:52;17.88;;;6.80;;
52686;SDS011;38584;49.426;8.396;2023-02-28T11:29:56;14.38;;;6.63;;
52686;SDS011;38584;49.426;8.396;2023-02-28T11:32:25;16.73;;;7.25;;
52686;SDS011;38584;49.426;8.396;2023-02-28T11:37:53;12.82;;;5.82;;
52686;SDS011;38584;49.426;8.396;2023-02-28T11:40:20;14.18;;;6.43;;
52686;SDS011;38584;49.426;8.396;2023-02-28T11:48:41;14.55;;;6.53;;
52686;SDS011;38584;49.426;8.396;2023-02-28T11:51:24;13.77;;;6.25;;
52686;SDS011;38584;49.426;8.396;2023-02-28T11:56:43;15.40;;;6.75;;
52686;SDS011;38584;49.426;8.396;2023-02-28T12:27:26;13.95;;;7.10;;
52686;SDS011;38584;49.426;8.396;2023-02-28T12:29:56;14.93;;;6.80;;
52686;SDS011;38584;49.426;8.396;2023-02-28T12:32:37;13.27;;;6.82;;
52686;SDS011;38584;49.426;8.396;2023-02-28T12:35:11;14.73;;;6.97;;
52686;SDS011;38584;49.426;8.396;2023-02-28T12:37:43;14.57;;;7.20;;
52686;SDS011;38584;49.426;8.396;2023-02-28T12:40:19;13.43;;;6.65;;
52686;SDS011;38584;49.426;8.396;2023-02-28T12:42:48;14.30;;;6.30;;
52686;SDS011;38584;49.426;8.396;2023-02-28T12:45:19;16.85;;;7.05;;
52686;SDS011;38584;49.426;8.396;2023-02-28T12:47:46;15.07;;;6.90;;
52686;SDS011;38584;49.426;8.396;2023-02-28T12:50:18;14.63;;;6.60;;
52686;SDS011;38584;49.426;8.396;2023-02-28T12:55:38;15.10;;;7.35;;
52686;SDS011;38584;49.426;8.396;2023-02-28T12:58:11;13.55;;;6.65;;
52686;SDS011;38584;49.426;8.396;2023-02-28T13:09:54;13.60;;;7.00;;
52686;SDS011;38584;49.426;8.396;2023-02-28T13:12:21;15.02;;;6.72;;
52686;SDS011;38584;49.426;8.396;2023-02-28T13:14:47;13.52;;;6.55;;
52686;SDS011;38584;49.426;8.396;2023-02-28T13:17:18;13.02;;;6.50;;
52686;SDS011;38584;49.426;8.396;2023-02-28T13:22:20;14.98;;;7.07;;
52686;SDS011;38584;49.426;8.396;2023-02-28T13:27:45;11.70;;;6.03;;
52686;SDS011;38584;49.426;8.396;2023-02-28T13:36:22;14.52;;;7.05;;
52686;SDS011;38584;49.426;8.396;2023-02-28T13:38:48;17.67;;;7.15;;
52686;SDS011;38584;49.426;8.396;2023-02-28T13:44:07;14.00;;;6.57;;
52686;SDS011;38584;49.426;8.396;2023-02-28T13:49:18;14.27;;;6.25;;
52686;SDS011;38584;49.426;8.396;2023-02-28T13:51:46;13.07;;;6.70;;
52686;SDS011;38584;49.426;8.396;2023-02-28T13:56:52;14.68;;;6.90;;
52686;SDS011;38584;49.426;8.396;2023-02-28T13:59:32;17.83;;;7.05;;
52686;SDS011;38584;49.426;8.396;2023-02-28T14:02:11;13.68;;;7.13;;
52686;SDS011;38584;49.426;8.396;2023-02-28T14:04:56;15.35;;;7.57;;
52686;SDS011;38584;49.426;8.396;2023-02-28T14:07:26;14.70;;;7.15;;
52686;SDS011;38584;49.426;8.396;2023-02-28T14:10:02;17.35;;;7.80;;
52686;SDS011;38584;49.426;8.396;2023-02-28T14:15:40;15.20;;;7.57;;
52686;SDS011;38584;49.426;8.396;2023-02-28T14:21:03;15.63;;;7.60;;
52686;SDS011;38584;49.426;8.396;2023-02-28T14:31:58;15.82;;;7.85;;
52686;SDS011;38584;49.426;8.396;2023-02-28T14:37:52;15.00;;;7.68;;
52686;SDS011;38584;49.426;8.396;2023-02-28T14:40:28;17.05;;;8.05;;
52686;SDS011;38584;49.426;8.396;2023-02-28T14:42:59;15.70;;;7.78;;
52686;SDS011;38584;49.426;8.396;2023-02-28T14:45:31;16.42;;;7.53;;
52686;SDS011;38584;49.426;8.396;2023-02-28T14:47:58;17.05;;;7.75;;
52686;SDS011;38584;49.426;8.396;2023-02-28T14:50:31;16.70;;;7.15;;
52686;SDS011;38584;49.426;8.396;2023-02-28T14:55:34;16.55;;;7.75;;
52686;SDS011;38584;49.426;8.396;2023-02-28T14:58:04;19.25;;;8.05;;
52686;SDS011;38584;49.426;8.396;2023-02-28T15:00:36;17.95;;;6.88;;
52686;SDS011;38584;49.426;8.396;2023-02-28T15:05:51;14.73;;;7.65;;
52686;SDS011;38584;49.426;8.396;2023-02-28T15:08:18;15.55;;;7.68;;
52686;SDS011;38584;49.426;8.396;2023-02-28T15:10:49;15.00;;;7.45;;
52686;SDS011;38584;49.426;8.396;2023-02-28T15:13:16;16.25;;;8.23;;
52686;SDS011;38584;49.426;8.396;2023-02-28T15:15:44;14.63;;;7.57;;
52686;SDS011;38584;49.426;8.396;2023-02-28T15:21:07;17.20;;;8.20;;
52686;SDS011;38584;49.426;8.396;2023-02-28T15:23:37;14.70;;;7.45;;
52686;SDS011;38584;49.426;8.396;2023-02-28T15:26:03;18.33;;;7.95;;
52686;SDS011;38584;49.426;8.396;2023-02-28T15:28:29;16.08;;;8.38;;
52686;SDS011;38584;49.426;8.396;2023-02-28T15:30:58;17.17;;;8.02;;
52686;SDS011;38584;49.426;8.396;2023-02-28T15:33:33;16.55;;;8.68;;
52686;SDS011;38584;49.426;8.396;2023-02-28T15:36:06;17.13;;;8.45;;
52686;SDS011;38584;49.426;8.396;2023-02-28T15:38:37;17.73;;;8.45;;
52686;SDS011;38584;49.426;8.396;2023-02-28T15:46:59;17.27;;;8.43;;
52686;SDS011;38584;49.426;8.396;2023-02-28T15:49:36;15.50;;;7.80;;
52686;SDS011;38584;49.426;8.396;2023-02-28T15:52:09;19.67;;;9.35;;
52686;SDS011;38584;49.426;8.396;2023-02-28T15:54:42;16.92;;;9.18;;
52686;SDS011;38584;49.426;8.396;2023-02-28T15:57:12;16.52;;;8.50;;
52686;SDS011;38584;49.426;8.396;2023-02-28T15:59:42;17.33;;;8.70;;
52686;SDS011;38584;49.426;8.396;2023-02-28T16:07:26;16.60;;;8.30;;
52686;SDS011;38584;49.426;8.396;2023-02-28T16:09:54;16.67;;;8.60;;
52686;SDS011;38584;49.426;8.396;2023-02-28T16:12:38;17.48;;;8.25;;
52686;SDS011;38584;49.426;8.396;2023-02-28T16:15:46;22.98;;;9.35;;
52686;SDS011;38584;49.426;8.396;2023-02-28T16:17:57;17.63;;;8.43;;
52686;SDS011;38584;49.426;8.396;2023-02-28T16:20:23;16.95;;;8.90;;
52686;SDS011;38584;49.426;8.396;2023-02-28T16:22:56;17.52;;;9.00;;
52686;SDS011;38584;49.426;8.396;2023-02-28T16:25:32;18.20;;;8.82;;
52686;SDS011;38584;49.426;8.396;2023-02-28T16:28:02;18.65;;;8.90;;
52686;SDS011;38584;49.426;8.396;2023-02-28T16:30:28;18.70;;;9.07;;
52686;SDS011;38584;49.426;8.396;2023-02-28T16:32:58;19.10;;;9.45;;
52686;SDS011;38584;49.426;8.396;2023-02-28T16:35:29;18.10;;;9.10;;
52686;SDS011;38584;49.426;8.396;2023-02-28T16:37:55;18.33;;;8.80;;
52686;SDS011;38584;49.426;8.396;2023-02-28T16:40:22;16.48;;;8.43;;
52686;SDS011;38584;49.426;8.396;2023-02-28T16:42:53;17.48;;;9.00;;
52686;SDS011;38584;49.426;8.396;2023-02-28T16:45:22;16.52;;;8.25;;
52686;SDS011;38584;49.426;8.396;2023-02-28T16:47:51;19.33;;;9.90;;
52686;SDS011;38584;49.426;8.396;2023-02-28T16:50:21;20.10;;;9.52;;
52686;SDS011;38584;49.426;8.396;2023-02-28T16:52:54;18.77;;;8.68;;
52686;SDS011;38584;49.426;8.396;2023-02-28T16:55:21;18.13;;;9.00;;
52686;SDS011;38584;49.426;8.396;2023-02-28T16:57:50;18.40;;;8.60;;
52686;SDS011;38584;49.426;8.396;2023-02-28T17:00:17;19.27;;;8.32;;
52686;SDS011;38584;49.426;8.396;2023-02-28T17:02:43;16.88;;;7.80;;
52686;SDS011;38584;49.426;8.396;2023-02-28T17:05:11;21.20;;;8.20;;
52686;SDS011;38584;49.426;8.396;2023-02-28T17:07:41;17.25;;;8.32;;
52686;SDS011;38584;49.426;8.396;2023-02-28T17:12:45;24.13;;;11.88;;
52686;SDS011;38584;49.426;8.396;2023-02-28T17:15:11;24.30;;;10.25;;
52686;SDS011;38584;49.426;8.396;2023-02-28T17:17:38;20.02;;;9.90;;
52686;SDS011;38584;49.426;8.396;2023-02-28T17:20:03;19.20;;;8.88;;
52686;SDS011;38584;49.426;8.396;2023-02-28T17:22:29;16.20;;;8.90;;
52686;SDS011;38584;49.426;8.396;2023-02-28T17:24:55;18.20;;;9.60;;
52686;SDS011;38584;49.426;8.396;2023-02-28T17:27:26;17.70;;;8.63;;
52686;SDS011;38584;49.426;8.396;2023-02-28T17:29:57;18.70;;;8.75;;
52686;SDS011;38584;49.426;8.396;2023-02-28T17:32:23;20.45;;;9.18;;
52686;SDS011;38584;49.426;8.396;2023-02-28T17:34:48;21.00;;;9.65;;
52686;SDS011;38584;49.426;8.396;2023-02-28T17:37:14;18.83;;;9.27;;
52686;SDS011;38584;49.426;8.396;2023-02-28T17:39:39;17.92;;;9.18;;
52686;SDS011;38584;49.426;8.396;2023-02-28T17:42:05;20.08;;;9.38;;
52686;SDS011;38584;49.426;8.396;2023-02-28T17:44:30;17.85;;;8.98;;